x

Halibut Bank (46146) Wave Buoy

6:00pm - Sun 22nd Oct 2017 All times are PDT. -7 hours from GMT.

  • Sig Wave height 0.7ft
  • Peak Period 2s
  • Wind
    2mph, 4mph gusts
  • Sea Temp 51°f
  • Air Temp 55°f
  • Sea Pressure 1024.7mb
  • Halibut Bank
  • Halibut Bank

More Historic Weather Station data

Upgrade to MSW Pro to gain access to the past 30 days of data for over 8000 Wavebouys and Weather Stations around the globe.

Join

Comparision Forecast

View Surf forecast
   
Sun 10/22 6:00pm 0.7ft 2s 2 4 mph 1024.7mb 51f 55f
5:00pm 0.7ft 3s 4 9 mph 1023.7mb 51f 55f
4:00pm 0.7ft 2s 9 9 mph 1022.8mb 51f 53f
3:00pm 0.7ft 2s 11 13 mph 1021.5mb 51f 53f
2:00pm 0.7ft 2s 11 13 mph 1020.6mb 51f 53f
1:00pm 0.7ft 2s 7 9 mph 1019.7mb 51f 53f
12:00pm 0.7ft 3s 7 9 mph 1018.8mb 51f 53f
11:00am 0.7ft 3s 7 9 mph 1017.2mb 51f 53f
10:00am 0.7ft 4s 2 2 mph 1015.7mb 51f 52f
9:00am 0.3ft 2s 7 9 mph 1013.9mb 51f 53f
8:00am 0.7ft 4s 4 4 mph 1011.9mb 51f 53f
7:00am 0.7ft 3s 4 9 mph 1010mb 51f 53f
6:00am 0.7ft 2s 11 16 mph 1008.3mb 51f 55f
5:00am 0.7ft 2s 4 7 mph 1006.5mb 51f 56f
4:00am 0.7ft 2s 13 18 mph 1004.7mb 51f 54f
3:00am 1ft 3s 11 16 mph 1003.5mb 51f 51f
2:00am 1.6ft 4s 13 18 mph 1002.3mb 51f 52f
1:00am 2ft 4s 13 18 mph 1001.2mb 51f 51f
12:00am 2.5ft 4s 18 20 mph 1000mb 51f 51f
Sat 10/21 11:00pm 3ft 4s 20 25 mph 999.9mb 51f 51f
10:00pm 3.5ft 5s 22 25 mph 999.1mb 51f 51f
9:00pm 3.5ft 5s 27 34 mph 998.4mb 51f 51f
8:00pm 3.5ft 4s 25 31 mph 998.4mb 51f 50f
7:00pm 3.5ft 4s 25 31 mph 998.5mb 51f 49f
6:00pm 3.5ft 4s 22 29 mph 999.7mb 51f 49f
5:00pm 3.5ft 4s 25 29 mph 1000.4mb 51f 49f
4:00pm 3.5ft 4s 25 31 mph 1001.6mb 51f 49f
3:00pm 3.5ft 4s 27 31 mph 1003.1mb 51f 48f
2:00pm 3.5ft 5s 22 29 mph 1004.1mb 51f 49f
1:00pm 3.5ft 5s 27 31 mph 1004.5mb 51f 48f
12:00pm 3.5ft 5s 25 29 mph 1004.9mb 51f 48f
11:00am 3.5ft 5s 25 29 mph 1005.4mb 51f 48f
10:00am 4.5ft 5s 29 34 mph 1005.3mb 51f 47f
9:00am 4.5ft 4s 29 36 mph 1005.9mb 51f 47f
8:00am 4ft 4s 29 34 mph 1005.9mb 51f 48f
7:00am 3.5ft 4s 27 34 mph 1006.6mb 51f 48f
6:00am 3.5ft 4s 22 29 mph 1008.1mb 51f 49f
5:00am 3ft 4s 25 31 mph 1008.7mb 51f 49f
4:00am 2.5ft 4s 22 25 mph 1009.9mb 51f 49f
3:00am 2ft 4s 20 25 mph 1010.9mb 51f 49f
2:00am 1.6ft 3s 18 22 mph 1011.1mb 51f 50f
1:00am 1ft 2s 16 22 mph 1011mb 51f 50f
12:00am 0.7ft 3s 13 16 mph 1011.3mb 51f 50f
Fri 10/20 11:00pm 0.3ft 6s 9 13 mph 1011.6mb 51f 51f
10:00pm 0.7ft 3s 7 9 mph 1011.2mb 51f 50f
9:00pm 0.7ft 6s 2 4 mph 1010.5mb 51f 50f
8:00pm 0.3ft 4s 9 9 mph 1010.2mb 51f 51f
7:00pm 0.7ft 4s 9 11 mph 1009.3mb 51f 51f
6:00pm 0.7ft 3s 7 7 mph 1008.2mb 52f 51f
5:00pm 0.7ft 3s  -  4 mph 1007.5mb 52f 52f
4:00pm 0.7ft 3s 4 7 mph 1006.6mb 52f 51f
3:00pm 1ft 3s 9 9 mph 1006mb 52f 51f
2:00pm 1ft 3s 9 9 mph 1005.5mb 52f 50f
1:00pm 1.3ft 3s 11 13 mph 1004.9mb 52f 50f
12:00pm 1.3ft 3s 9 11 mph 1004.5mb 52f 50f
11:00am 1.3ft 3s 13 13 mph 1003.7mb 51f 49f
10:00am 1.6ft 4s 13 16 mph 1003mb 51f 49f
9:00am 2ft 4s 18 22 mph 1002.4mb 51f 49f
8:00am 2ft 3s 18 20 mph 1001.7mb 52f 49f
7:00am 1.6ft 3s 16 18 mph 1001.2mb 52f 49f
6:00am 1.3ft 3s 16 18 mph 1000.6mb 52f 49f
5:00am 1ft 2s 13 16 mph 1000mb 52f 49f
4:00am 0.7ft 2s 13 16 mph 999.5mb 52f 49f
3:00am 0.7ft 3s 11 13 mph 999.1mb 52f 50f
2:00am 0.7ft 2s 9 11 mph 998.8mb 52f 50f
1:00am 1ft 2s 9 11 mph 998.3mb 52f 50f
12:00am 1ft 2s 11 13 mph 997.9mb 52f 50f
Thu 10/19 11:00pm 1ft 3s 13 16 mph 997.6mb 52f 51f
10:00pm 1ft 3s 13 16 mph 997.3mb 52f 51f
9:00pm 1.3ft 3s 13 16 mph 997.1mb 52f 51f
8:00pm 1.6ft 4s 13 16 mph 996.6mb 52f 51f
7:00pm 2ft 3s 16 20 mph 996.7mb 52f 51f
6:00pm 1.6ft 3s 20 22 mph 996.1mb 52f 51f
5:00pm 1.6ft 3s 11 13 mph 995.8mb 52f 51f
4:00pm 2ft 4s 13 16 mph 995.9mb 52f 52f
3:00pm 1.6ft 3s 16 20 mph 996.3mb 52f 52f
2:00pm 2ft 3s 16 18 mph 996.5mb 52f 52f
1:00pm 2.5ft 4s 18 22 mph 997mb 52f 52f
12:00pm 2.5ft 4s 16 20 mph 997.3mb 52f 53f
11:00am 2ft 4s 18 22 mph 997.4mb 52f 52f
10:00am 2.5ft 4s 18 22 mph 997.6mb 52f 52f
9:00am 2.5ft 4s 18 22 mph 997.6mb 52f 52f
8:00am 2ft 3s 18 20 mph 997.6mb 52f 52f
7:00am 2ft 3s 13 18 mph 997.9mb 52f 52f
6:00am 2ft 4s 20 25 mph 997.6mb 52f 53f
5:00am 1.6ft 3s 16 20 mph 997.8mb 52f 53f
4:00am 2ft 3s 18 20 mph 997.9mb 52f 53f
3:00am 1.6ft 3s 18 20 mph 998.2mb 52f 53f